Terminal Aerodrome Forecast
Issued by NWS

Home | Current Version | Previous Version | Text Only | Print | Product List | Glossary On
Versions: 1 2 3 4 5 6 7 8 9 10 11 12 13 14 15 16 17 18 19 20
000
FTUS43 KMQT 041724
TAFSAW
TAF
KSAW 041724Z 0418/0518 06006KT P6SM SKC
     FM050000 00000KT P6SM SCT060
     FM050600 00000KT 5SM BR SCT022
     FM050800 00000KT 3SM BR BKN012
     FM050900 00000KT 3SM BR BKN003
     FM051300 20003KT 5SM BR SCT016
     FM051400 21004KT P6SM SCT035=

USA.gov is the U.S. government's official web portal to all federal, state and local government web resources and services.